Terminal Aerodrome Forecast
Issued by NWS Cleveland, OH

Home | Current Version | Previous Version | Graphics & Text | Print | Product List | Glossary On
Versions: 1 2 3 4 5 6 7 8 9 10 11 12 13 14 15 16 17 18 19 20 21 22 23
000
FTUS41 KCLE 272015 AAB
TAFCLE
TAF AMD
KCLE 272015Z 2720/2824 21012G20KT P6SM SCT015 BKN035
     FM272200 05015G25KT P6SM SCT015 OVC025
      TEMPO 2722/2724 2SM SHRA BR OVC008
     FM280000 01015G25KT P6SM VCSH SCT008 OVC015
     FM281100 36012KT 5SM -SHRA BR OVC003=

USA.gov is the U.S. government's official web portal to all federal, state and local government web resources and services.